Map

Track Data

SID SEASON NUMBER BASIN SUBBASIN NAME ISO_TIME NATURE LAT LON WMO_WIND WMO_PRES WMO_AGENCY TRACK_TYPE DIST2LAND LANDFALL IFLAG USA_AGENCY USA_ATCF_ID USA_LAT USA_LON USA_RECORD USA_STATUS USA_WIND USA_PRES USA_SSHS USA_R34_NE USA_R34_SE USA_R34_SW USA_R34_NW USA_R50_NE USA_R50_SE USA_R50_SW USA_R50_NW USA_R64_NE USA_R64_SE USA_R64_SW USA_R64_NW USA_POCI USA_ROCI USA_RMW USA_EYE TOKYO_LAT TOKYO_LON TOKYO_GRADE TOKYO_WIND TOKYO_PRES TOKYO_R50_DIR TOKYO_R50_LONG TOKYO_R50_SHORT TOKYO_R30_DIR TOKYO_R30_LONG TOKYO_R30_SHORT TOKYO_LAND CMA_LAT CMA_LON CMA_CAT CMA_WIND CMA_PRES HKO_LAT HKO_LON HKO_CAT HKO_WIND HKO_PRES NEWDELHI_LAT NEWDELHI_LON NEWDELHI_GRADE NEWDELHI_WIND NEWDELHI_PRES NEWDELHI_CI NEWDELHI_DP NEWDELHI_POCI REUNION_LAT REUNION_LON REUNION_TYPE REUNION_WIND REUNION_PRES REUNION_TNUM REUNION_CI REUNION_RMW REUNION_R34_NE REUNION_R34_SE REUNION_R34_SW REUNION_R34_NW REUNION_R50_NE REUNION_R50_SE REUNION_R50_SW REUNION_R50_NW REUNION_R64_NE REUNION_R64_SE REUNION_R64_SW REUNION_R64_NW BOM_LAT BOM_LON BOM_TYPE BOM_WIND BOM_PRES BOM_TNUM BOM_CI BOM_RMW BOM_R34_NE BOM_R34_SE BOM_R34_SW BOM_R34_NW BOM_R50_NE BOM_R50_SE BOM_R50_SW BOM_R50_NW BOM_R64_NE BOM_R64_SE BOM_R64_SW BOM_R64_NW BOM_ROCI BOM_POCI BOM_EYE BOM_POS_METHOD BOM_PRES_METHOD NADI_LAT NADI_LON NADI_CAT NADI_WIND NADI_PRES WELLINGTON_LAT WELLINGTON_LON WELLINGTON_WIND WELLINGTON_PRES DS824_LAT DS824_LON DS824_STAGE DS824_WIND DS824_PRES TD9636_LAT TD9636_LON TD9636_STAGE TD9636_WIND TD9636_PRES TD9635_LAT TD9635_LON TD9635_WIND TD9635_PRES TD9635_ROCI NEUMANN_LAT NEUMANN_LON NEUMANN_CLASS NEUMANN_WIND NEUMANN_PRES MLC_LAT MLC_LON MLC_CLASS MLC_WIND MLC_PRES USA_GUST BOM_GUST BOM_GUST_PER REUNION_GUST REUNION_GUST_PER USA_SEAHGT USA_SEARAD_NE USA_SEARAD_SE USA_SEARAD_SW USA_SEARAD_NW STORM_SPEED STORM_DIR
1998348S17156 1999 103 SP EA NOT_NAMED 1998-12-13 12:00:00 TS -16.6000 156.400 main 845 834 O___________O_ jtwc_sh SH071999 -16.6000 156.400 25 -1 -16.6000 156.400 TC 25 10 210
1998348S17156 1999 103 SP EA NOT_NAMED 1998-12-13 15:00:00 TS -17.0251 156.143 main 827 779 P___________P_ SH071999 -17.0251 156.143 25 -1 -17.0251 156.143 TC 25 9 211
1998348S17156 1999 103 SP EA NOT_NAMED 1998-12-13 18:00:00 TS -17.4000 155.900 main 779 740 O___________O_ jtwc_sh SH071999 -17.4000 155.900 25 -1 -17.4000 155.900 TC 25 8 211
1998348S17156 1999 103 SP EA NOT_NAMED 1998-12-13 21:00:00 TS -17.6999 155.710 main 740 717 P___________P_ SH071999 -17.6999 155.710 25 -1 -17.6999 155.710 TC 25 6 198
1998348S17156 1999 103 SP EA NOT_NAMED 1998-12-14 00:00:00 TS -18.0000 155.700 main 717 701 O___________O_ jtwc_sh SH071999 -18.0000 155.700 25 -1 -18.0000 155.700 TC 25 7 163
1998348S17156 1999 103 SP EA NOT_NAMED 1998-12-14 03:00:00 TS -18.3997 155.930 main 701 701 P___________P_ SH071999 -18.3997 155.930 25 -1 -18.3997 155.930 TC 25 10 140
1998348S17156 1999 103 SP EA NOT_NAMED 1998-12-14 06:00:00 TS -18.8000 156.400 main 714 714 O___________O_ jtwc_sh SH071999 -18.8000 156.400 25 -1 -18.8000 156.400 TC 25 13 124
1998348S17156 1999 103 SP EA NOT_NAMED 1998-12-14 09:00:00 TS -19.1304 157.062 main 734 656 P___________P_ SH071999 -19.1304 157.062 25 -1 -19.1304 157.062 TC 25 15 114
1998348S17156 1999 103 SP EA NOT_NAMED 1998-12-14 12:00:00 TS -19.4000 157.800 main 656 590 O___________O_ jtwc_sh SH071999 -19.4000 157.800 25 -1 -19.4000 157.800 TC 25 14 109
1998348S17156 1999 103 SP EA NOT_NAMED 1998-12-14 15:00:00 TS -19.5849 158.446 main 590 525 P___________P_ SH071999 -19.5849 158.446 25 -1 -19.5849 158.446 TC 25 12 109
1998348S17156 1999 103 SP EA NOT_NAMED 1998-12-14 18:00:00 TS -19.8000 159.000 main 525 480 O___________O_ jtwc_sh SH071999 -19.8000 159.000 25 -1 -19.8000 159.000 TC 25 11 121
1998348S17156 1999 103 SP EA NOT_NAMED 1998-12-14 21:00:00 TS -20.1547 159.438 main 479 438 P___________P_ SH071999 -20.1547 159.438 25 -1 -20.1547 159.438 TC 25 11 137
1998348S17156 1999 103 SP EA NOT_NAMED 1998-12-15 00:00:00 TS -20.6000 159.800 main 438 411 O___________O_ jtwc_sh SH071999 -20.6000 159.800 25 -1 -20.6000 159.800 TC 25 11 144
1998348S17156 1999 103 SP MM NOT_NAMED 1998-12-15 03:00:00 TS -21.0848 160.150 main 405 387 P___________P_ SH071999 -21.0848 160.150 27 -1 -21.0848 160.150 TC 27 12 147
1998348S17156 1999 103 SP MM NOT_NAMED 1998-12-15 06:00:00 TS -21.6000 160.500 main 391 377 O___________O_ jtwc_sh SH071999 -21.6000 160.500 30 -1 -21.6000 160.500 TC 30 12 146
1998348S17156 1999 103 SP MM NOT_NAMED 1998-12-15 09:00:00 TS -22.1150 160.900 main 379 373 P___________P_ SH071999 -22.1150 160.900 30 -1 -22.1150 160.900 TC 30 12 143
1998348S17156 1999 103 SP MM NOT_NAMED 1998-12-15 12:00:00 TS -22.6000 161.300 main 378 372 O___________O_ jtwc_sh SH071999 -22.6000 161.300 30 -1 -22.6000 161.300 TC 30 11 142
1998348S17156 1999 103 SP MM NOT_NAMED 1998-12-15 15:00:00 TS -22.9923 161.643 main 379 366 P___________P_ SH071999 -22.9923 161.643 30 -1 -22.9923 161.643 TC 30 10 141
1998348S17156 1999 103 SP MM NOT_NAMED 1998-12-15 18:00:00 TS -23.4000 162.000 main 372 370 O___________O_ jtwc_sh SH071999 -23.4000 162.000 30 -1 -23.4000 162.000 TC 30 12 142
1998348S17156 1999 103 SP MM NOT_NAMED 1998-12-15 21:00:00 TS -23.9350 162.435 main 379 379 P___________P_ SH071999 -23.9350 162.435 30 -1 -23.9350 162.435 TC 30 14 143
1998348S17156 1999 103 SP MM NOT_NAMED 1998-12-16 00:00:00 TS -24.5000 162.900 main 402 402 O___________O_ jtwc_sh SH071999 -24.5000 162.900 30 -1 -24.5000 162.900 TC 30 14 142
1998348S17156 1999 103 SP MM NOT_NAMED 1998-12-16 03:00:00 TS -24.9924 163.358 main 424 424 P___________P_ SH071999 -24.9924 163.358 30 -1 -24.9924 163.358 TC 30 13 141
1998348S17156 1999 103 SP MM NOT_NAMED 1998-12-16 06:00:00 TS -25.5000 163.800 main 444 444 O___________O_ jtwc_sh SH071999 -25.5000 163.800 30 -1 -25.5000 163.800 TC 30 13 143
1998348S17156 1999 103 SP MM NOT_NAMED 1998-12-16 09:00:00 TS -26.0626 164.245 main 479 474 P___________P_ SH071999 -26.0626 164.245 30 -1 -26.0626 164.245 TC 30 14 149
1998348S17156 1999 103 SP MM NOT_NAMED 1998-12-16 12:00:00 TS -26.7000 164.600 main 524 524 O___________O_ jtwc_sh SH071999 -26.7000 164.600 30 -1 -26.7000 164.600 TC 30 14 159
1998348S17156 1999 103 SP MM NOT_NAMED 1998-12-16 15:00:00 TS -27.4049 164.818 main 590 590 P___________P_ SH071999 -27.4049 164.818 30 -1 -27.4049 164.818 TC 30 15 170
1998348S17156 1999 103 SP MM NOT_NAMED 1998-12-16 18:00:00 TS -28.2000 164.900 main 672 672 O___________O_ jtwc_sh SH071999 -28.2000 164.900 30 -1 -28.2000 164.900 TC 30 17 179
1998348S17156 1999 103 SP MM NOT_NAMED 1998-12-16 21:00:00 TS -29.0625 164.851 main 769 769 P___________P_ SH071999 -29.0625 164.851 30 -1 -29.0625 164.851 TC 30 18 183
1998348S17156 1999 103 SP MM NOT_NAMED 1998-12-17 00:00:00 TS -30.0000 164.800 main 869 817 O___________O_ jtwc_sh SH071999 -30.0000 164.800 30 -1 -30.0000 164.800 TC 30 20 180
1998348S17156 1999 103 SP MM NOT_NAMED 1998-12-17 03:00:00 TS -31.0072 164.868 main 817 754 P___________P_ SH071999 -31.0072 164.868 32 -1 -31.0072 164.868 TC 32 20 173
1998348S17156 1999 103 SP MM NOT_NAMED 1998-12-17 06:00:00 TS -32.0000 165.100 main 749 682 O___________O_ jtwc_sh SH071999 -32.0000 165.100 35 0 -32.0000 165.100 TC 35 20 163
1998348S17156 1999 103 SP MM NOT_NAMED 1998-12-17 09:00:00 TS -32.8800 165.532 main 679 603 P___________P_ SH071999 -32.8800 165.532 35 0 -32.8800 165.532 TC 35 19 154
1998348S17156 1999 103 SP MM NOT_NAMED 1998-12-17 12:00:00 TS -33.7000 166.100 main 603 539 O___________O_ jtwc_sh SH071999 -33.7000 166.100 35 0 -33.7000 166.100 TC 35 19 148
1998348S17156 1999 103 SP MM NOT_NAMED 1998-12-17 15:00:00 TS -34.4705 166.730 main 539 488 P___________P_ SH071999 -34.4705 166.730 35 0 -34.4705 166.730 TC 35 19 148
1998348S17156 1999 103 SP MM NOT_NAMED 1998-12-17 18:00:00 TS -35.3000 167.300 main 490 481 O___________O_ jtwc_sh SH071999 -35.3000 167.300 35 0 -35.3000 167.300 TC 35 20 158
1998348S17156 1999 103 SP MM NOT_NAMED 1998-12-17 21:00:00 TS -36.3120 167.654 main 486 486 P___________P_ SH071999 -36.3120 167.654 35 0 -36.3120 167.654 TC 35 22 167
1998348S17156 1999 103 SP MM NOT_NAMED 1998-12-18 00:00:00 TS -37.4000 167.900 main 528 440 O___________O_ jtwc_sh SH071999 -37.4000 167.900 35 0 -37.4000 167.900 TC 35 22 170
1998348S17156 1999 103 SP MM NOT_NAMED 1998-12-18 03:00:00 TS -38.4627 168.143 main 433 355 P___________P_ SH071999 -38.4627 168.143 35 0 -38.4627 168.143 TC 35 21 169
1998348S17156 1999 103 SP MM NOT_NAMED 1998-12-18 06:00:00 TS -39.5000 168.400 main 349 O___________O_ jtwc_sh SH071999 -39.5000 168.400 35 0 -39.5000 168.400 TC 35 21 169

Digital Typhoon Data and Search

About IBTrACS Database

This database is a web-friendly format of International Best Track Archive for Climate Stewardship (IBTrACS), a global best track data archive curated by NOAA dating back to 1842.

Updated: 2021-10-25